createdAt,value
2018-03-01T00:00:23.221Z,102214.44
2018-03-01T00:02:51.696Z,102221.06
2018-03-01T00:05:20.707Z,102218.86
2018-03-01T00:07:49.696Z,102215.31
2018-03-01T00:10:18.453Z,102214.58
2018-03-01T00:12:47.284Z,102209.52
2018-03-01T00:15:16.699Z,102208.95
2018-03-01T00:17:45.303Z,102201.25
2018-03-01T00:20:14.060Z,102201.52
2018-03-01T00:22:42.870Z,102201.73
2018-03-01T00:25:11.587Z,102185.56
2018-03-01T00:27:40.267Z,102202.12
2018-03-01T00:30:09.293Z,102196.03
2018-03-01T00:32:37.867Z,102192.15
2018-03-01T00:35:08.112Z,102185.84
2018-03-01T00:37:36.925Z,102187.15
2018-03-01T00:40:06.029Z,102182.81
2018-03-01T00:42:34.483Z,102174.33
2018-03-01T00:45:02.996Z,102172.48
2018-03-01T00:47:31.546Z,102175.95
2018-03-01T00:50:00.303Z,102171.03
2018-03-01T00:52:28.987Z,102168.53
2018-03-01T00:54:57.598Z,102166.11
2018-03-01T00:57:26.078Z,102167.62
2018-03-01T00:59:54.812Z,102171.30
2018-03-01T01:02:23.701Z,102174.47
2018-03-01T01:04:52.251Z,102165.17
2018-03-01T01:07:20.936Z,102166.42
2018-03-01T01:09:49.523Z,102166.55
2018-03-01T01:12:18.343Z,102164.52
2018-03-01T01:14:46.790Z,102155.02
2018-03-01T01:17:15.439Z,102147.17
2018-03-01T01:19:44.105Z,102147.69
2018-03-01T01:22:12.796Z,102143.21
2018-03-01T01:24:41.644Z,102133.70
2018-03-01T01:27:10.166Z,102129.30
2018-03-01T01:29:38.791Z,102119.40
2018-03-01T01:32:07.271Z,102111.77
2018-03-01T01:34:35.956Z,102112.72
2018-03-01T01:37:04.491Z,102113.09
2018-03-01T01:39:32.938Z,102107.30
2018-03-01T01:42:01.367Z,102107.96
2018-03-01T01:44:30.723Z,102103.80
2018-03-01T01:46:59.220Z,102094.56
2018-03-01T01:49:28.159Z,102085.70
2018-03-01T01:51:57.012Z,102081.66
2018-03-01T01:54:25.750Z,102074.56
2018-03-01T01:56:54.198Z,102079.03
2018-03-01T01:59:22.689Z,102077.41
2018-03-01T02:01:51.203Z,102069.12
2018-03-01T02:04:19.780Z,102065.42
2018-03-01T02:06:48.511Z,102059.38
2018-03-01T02:09:16.950Z,102062.36
2018-03-01T02:11:45.426Z,102058.42
2018-03-01T02:14:13.890Z,102058.78
2018-03-01T02:16:42.494Z,102050.48
2018-03-01T02:19:11.331Z,102046.94
2018-03-01T02:21:39.839Z,102039.74
2018-03-01T02:24:08.294Z,102039.80
2018-03-01T02:26:36.735Z,102030.16
2018-03-01T02:29:05.219Z,102029.76
2018-03-01T02:31:33.864Z,102022.65
2018-03-01T02:34:02.605Z,102015.92
2018-03-01T02:36:33.668Z,102019.13
2018-03-01T02:39:02.104Z,102009.37
2018-03-01T02:41:30.580Z,102009.77
2018-03-01T02:43:59.165Z,102001.62
2018-03-01T02:46:27.776Z,102006.14
2018-03-01T02:48:56.431Z,101996.13
2018-03-01T02:51:24.864Z,101995.95
2018-03-01T02:53:53.329Z,101991.19
2018-03-01T02:56:21.843Z,101998.30
2018-03-01T02:58:50.251Z,101986.16
2018-03-01T03:01:18.706Z,101989.14
2018-03-01T03:03:47.227Z,101987.42
2018-03-01T03:06:15.770Z,101986.65
2018-03-01T03:08:44.150Z,101986.49
2018-03-01T03:11:12.690Z,101981.41
2018-03-01T03:13:41.148Z,101977.93
2018-03-01T03:16:09.687Z,101980.58
2018-03-01T03:18:38.333Z,101969.97
2018-03-01T03:21:06.772Z,101978.20
2018-03-01T03:23:35.285Z,101979.16
2018-03-01T03:26:03.781Z,101970.20
2018-03-01T03:28:32.242Z,101976.67
2018-03-01T03:31:00.788Z,101965.89
2018-03-01T03:33:29.414Z,101970.77
2018-03-01T03:35:57.958Z,101977.81
2018-03-01T03:38:26.647Z,101971.26
2018-03-01T03:40:55.262Z,101973.56
2018-03-01T03:43:23.811Z,101962.69
2018-03-01T03:45:52.543Z,101962.04
2018-03-01T03:48:21.007Z,101968.44
2018-03-01T03:50:49.820Z,101963.79
2018-03-01T03:53:18.247Z,101971.81
2018-03-01T03:55:46.674Z,101971.21
2018-03-01T03:58:15.106Z,101966.47
2018-03-01T04:00:43.971Z,101962.70
2018-03-01T04:03:22.254Z,101963.67
2018-03-01T04:05:57.917Z,101961.83
2018-03-01T04:08:26.387Z,101965.00
2018-03-01T04:10:54.885Z,101960.35
2018-03-01T04:13:23.521Z,101953.75
2018-03-01T04:15:52.247Z,101956.13
2018-03-01T04:18:20.891Z,101968.80
2018-03-01T04:20:49.443Z,101965.30
2018-03-01T04:23:18.222Z,101969.09
2018-03-01T04:25:46.774Z,101974.83
2018-03-01T04:28:15.411Z,101977.30
2018-03-01T04:30:44.147Z,101976.25
2018-03-01T04:33:12.600Z,101971.39
2018-03-01T04:35:41.330Z,101972.46
2018-03-01T04:38:09.956Z,101962.91
2018-03-01T04:40:38.675Z,101966.55
2018-03-01T04:43:07.119Z,101958.66
2018-03-01T04:45:35.647Z,101962.72
2018-03-01T04:48:04.084Z,101961.12
2018-03-01T04:50:32.810Z,101955.55
2018-03-01T04:53:01.320Z,101959.23
2018-03-01T04:55:29.767Z,101955.02
2018-03-01T04:57:58.641Z,101948.42
2018-03-01T05:03:22.411Z,101940.69
2018-03-01T05:05:51.677Z,101931.86
2018-03-01T05:08:21.990Z,101933.94
2018-03-01T05:10:51.820Z,101929.27
2018-03-01T05:13:21.477Z,101923.71
2018-03-01T05:15:51.204Z,101916.91
2018-03-01T05:18:21.030Z,101918.80
2018-03-01T05:20:49.648Z,101917.11
2018-03-01T05:23:18.610Z,101914.69
2018-03-01T05:25:47.324Z,101919.32
2018-03-01T05:28:15.664Z,101920.45
2018-03-01T05:30:44.078Z,101914.46
2018-03-01T05:33:12.351Z,101912.38
2018-03-01T05:35:40.662Z,101908.48
2018-03-01T05:38:08.945Z,101899.99
2018-03-01T05:40:37.991Z,101892.08
2018-03-01T05:43:06.581Z,101889.47
2018-03-01T05:45:34.985Z,101898.75
2018-03-01T05:48:03.972Z,101888.41
2018-03-01T05:50:34.074Z,101881.20
2018-03-01T05:53:02.723Z,101888.94
2018-03-01T05:55:31.062Z,101883.00
2018-03-01T05:57:59.426Z,101885.41
2018-03-01T06:00:27.761Z,101883.98
2018-03-01T06:02:56.295Z,101881.92
2018-03-01T06:05:24.611Z,101872.03
2018-03-01T06:07:53.120Z,101876.02
2018-03-01T06:10:21.502Z,101868.88
2018-03-01T06:12:49.987Z,101866.95
2018-03-01T06:15:18.527Z,101854.23
2018-03-01T06:17:46.851Z,101844.20
2018-03-01T06:20:15.559Z,101848.27
2018-03-01T06:22:43.952Z,101851.30
2018-03-01T06:25:12.278Z,101842.69
2018-03-01T06:27:40.702Z,101832.41
2018-03-01T06:30:09.254Z,101834.33
2018-03-01T06:32:37.584Z,101836.29
2018-03-01T06:35:05.955Z,101828.55
2018-03-01T06:37:34.256Z,101828.22
2018-03-01T06:40:02.551Z,101825.92
2018-03-01T06:42:30.924Z,101831.68
2018-03-01T06:44:59.220Z,101830.63
2018-03-01T06:47:27.783Z,101829.18
2018-03-01T06:49:56.087Z,101832.91
2018-03-01T06:52:24.647Z,101819.59
2018-03-01T06:54:53.023Z,101818.71
2018-03-01T06:57:21.349Z,101818.41
2018-03-01T06:59:49.680Z,101822.58
2018-03-01T07:02:18.376Z,101824.09
2018-03-01T07:04:46.667Z,101817.67
2018-03-01T07:07:14.986Z,101822.10
2018-03-01T07:09:43.414Z,101814.15
2018-03-01T07:12:11.787Z,101801.95
2018-03-01T07:14:40.239Z,101792.77
2018-03-01T07:17:08.564Z,101796.89
2018-03-01T07:19:36.932Z,101789.44
2018-03-01T07:22:05.334Z,101778.95
2018-03-01T07:24:33.697Z,101774.07
2018-03-01T07:27:02.099Z,101774.03
2018-03-01T07:29:30.533Z,101769.20
2018-03-01T07:31:58.864Z,101770.61
2018-03-01T07:34:27.379Z,101779.55
2018-03-01T07:36:55.723Z,101774.91
2018-03-01T07:39:24.034Z,101774.50
2018-03-01T07:41:52.376Z,101770.77
2018-03-01T07:44:20.906Z,101768.20
2018-03-01T07:46:49.280Z,101772.84
2018-03-01T07:49:17.559Z,101774.36
2018-03-01T07:51:45.847Z,101774.55
2018-03-01T07:54:14.296Z,101775.44
2018-03-01T07:56:42.603Z,101771.94
2018-03-01T07:59:11.589Z,101776.13
2018-03-01T08:01:39.935Z,101770.52
2018-03-01T08:04:08.219Z,101775.70
2018-03-01T08:06:36.567Z,101775.47
2018-03-01T08:09:05.633Z,101759.79
2018-03-01T08:11:33.976Z,101773.66
2018-03-01T08:14:02.390Z,101770.80
2018-03-01T08:16:30.784Z,101774.66
2018-03-01T08:18:59.114Z,101764.01
2018-03-01T08:21:27.469Z,101762.72
2018-03-01T08:23:55.775Z,101757.80
2018-03-01T08:26:24.771Z,101757.27
2018-03-01T08:28:53.560Z,101753.66
2018-03-01T08:31:21.917Z,101748.46
2018-03-01T08:33:50.231Z,101741.38
2018-03-01T08:36:18.554Z,101740.39
2018-03-01T08:38:46.886Z,101737.66
2018-03-01T08:41:15.390Z,101732.09
2018-03-01T08:43:43.871Z,101728.04
2018-03-01T08:46:12.183Z,101727.76
2018-03-01T08:48:40.831Z,101726.52
2018-03-01T08:51:09.288Z,101728.44
2018-03-01T08:53:37.979Z,101715.72
2018-03-01T08:56:06.314Z,101710.27
2018-03-01T08:58:34.811Z,101708.80
2018-03-01T09:01:03.102Z,101709.44
2018-03-01T09:03:31.391Z,101704.78
2018-03-01T09:06:00.100Z,101697.94
2018-03-01T09:08:28.419Z,101709.89
2018-03-01T09:10:57.049Z,101707.33
2018-03-01T09:13:25.886Z,101704.22
2018-03-01T09:15:54.285Z,101702.44
2018-03-01T09:18:22.638Z,101708.86
2018-03-01T09:20:51.040Z,101708.98
2018-03-01T09:23:19.406Z,101703.59
2018-03-01T09:25:47.718Z,101690.47
2018-03-01T09:28:16.067Z,101681.36
2018-03-01T09:30:44.406Z,101687.16
2018-03-01T09:33:12.791Z,101688.98
2018-03-01T09:35:41.147Z,101682.73
2018-03-01T09:38:09.502Z,101693.84
2018-03-01T09:40:38.011Z,101675.33
2018-03-01T09:43:07.486Z,101671.16
2018-03-01T09:45:35.815Z,101671.66
2018-03-01T09:48:04.084Z,101668.64
2018-03-01T09:50:32.415Z,101668.64
2018-03-01T09:53:00.700Z,101667.89
2018-03-01T09:55:29.023Z,101661.93
2018-03-01T09:57:57.377Z,101651.06
2018-03-01T10:00:25.716Z,101651.37
2018-03-01T10:02:54.214Z,101655.80
2018-03-01T10:05:22.526Z,101649.05
2018-03-01T10:07:51.140Z,101644.14
2018-03-01T10:10:19.442Z,101644.30
2018-03-01T10:12:47.819Z,101640.41
2018-03-01T10:15:16.297Z,101631.27
2018-03-01T10:17:44.600Z,101630.51
2018-03-01T10:20:13.227Z,101629.20
2018-03-01T10:22:42.541Z,101626.10
2018-03-01T10:25:10.982Z,101624.22
2018-03-01T10:27:40.189Z,101624.83
2018-03-01T10:30:08.567Z,101616.30
2018-03-01T10:32:36.978Z,101617.78
2018-03-01T10:35:05.307Z,101614.13
2018-03-01T10:37:33.654Z,101605.53
2018-03-01T10:40:01.899Z,101597.15
2018-03-01T10:42:30.248Z,101593.06
2018-03-01T10:44:58.679Z,101590.98
2018-03-01T10:47:27.016Z,101585.13
2018-03-01T10:49:55.310Z,101573.91
2018-03-01T10:52:23.723Z,101567.30
2018-03-01T10:54:52.052Z,101568.56
2018-03-01T10:57:20.387Z,101562.56
2018-03-01T10:59:48.699Z,101555.60
2018-03-01T11:02:17.244Z,101556.69
2018-03-01T11:04:45.556Z,101549.00
2018-03-01T11:07:13.983Z,101554.59
2018-03-01T11:09:42.420Z,101544.36
2018-03-01T11:12:10.735Z,101531.54
2018-03-01T11:14:39.883Z,101517.56
2018-03-01T11:17:08.199Z,101525.69
2018-03-01T11:19:36.543Z,101518.03
2018-03-01T11:22:04.931Z,101502.14
2018-03-01T11:24:34.209Z,101507.09
2018-03-01T11:27:02.573Z,101488.95
2018-03-01T11:29:30.937Z,101486.90
2018-03-01T11:31:59.350Z,101478.34
2018-03-01T11:34:27.630Z,101462.70
2018-03-01T11:36:56.121Z,101470.32
2018-03-01T11:39:24.600Z,101474.44
2018-03-01T11:41:52.942Z,101468.28
2018-03-01T11:44:21.579Z,101460.83
2018-03-01T11:46:49.887Z,101472.78
2018-03-01T11:49:18.183Z,101450.42
2018-03-01T11:51:46.723Z,101445.69
2018-03-01T11:54:15.023Z,101444.94
2018-03-01T11:56:43.363Z,101456.16
2018-03-01T11:59:11.904Z,101452.77
2018-03-01T12:01:40.227Z,101437.56
2018-03-01T12:04:08.538Z,101439.63
2018-03-01T12:06:37.055Z,101442.04
2018-03-01T12:09:06.358Z,101438.92
2018-03-01T12:11:35.464Z,101420.39
2018-03-01T12:14:03.955Z,101420.33
2018-03-01T12:16:32.331Z,101417.64
2018-03-01T12:19:00.667Z,101431.34
2018-03-01T12:21:29.020Z,101421.42
2018-03-01T12:23:57.566Z,101419.02
2018-03-01T12:26:26.212Z,101408.17
2018-03-01T12:28:54.575Z,101408.48
2018-03-01T12:31:23.298Z,101412.25
2018-03-01T12:33:51.616Z,101412.78
2018-03-01T12:36:19.968Z,101402.09
2018-03-01T12:38:48.264Z,101399.77
2018-03-01T12:41:16.764Z,101402.23
2018-03-01T12:43:45.223Z,101405.80
2018-03-01T12:46:13.558Z,101399.09
2018-03-01T12:48:42.320Z,101402.56
2018-03-01T12:51:10.659Z,101397.95
2018-03-01T12:53:38.942Z,101391.51
2018-03-01T12:56:07.284Z,101373.77
2018-03-01T12:58:35.600Z,101370.89
2018-03-01T13:01:04.227Z,101359.70
2018-03-01T13:03:32.791Z,101371.90
2018-03-01T13:06:01.119Z,101355.86
2018-03-01T13:08:29.836Z,101370.45
2018-03-01T13:10:58.179Z,101373.59
2018-03-01T13:13:26.703Z,101366.91
2018-03-01T13:15:55.053Z,101366.72
2018-03-01T13:18:23.392Z,101364.58
2018-03-01T13:20:51.742Z,101366.28
2018-03-01T13:23:20.148Z,101369.13
2018-03-01T13:25:48.561Z,101362.48
2018-03-01T13:28:16.875Z,101359.19
2018-03-01T13:30:45.419Z,101364.52
2018-03-01T13:33:14.098Z,101350.97
2018-03-01T13:35:42.515Z,101356.55
2018-03-01T13:38:12.595Z,101354.86
2018-03-01T13:40:41.051Z,101344.27
2018-03-01T13:43:09.685Z,101342.41
2018-03-01T13:45:38.023Z,101329.81
2018-03-01T13:48:07.840Z,101330.26
2018-03-01T13:50:36.155Z,101331.72
2018-03-01T13:53:04.483Z,101325.65
2018-03-01T13:55:32.827Z,101320.53
2018-03-01T13:58:01.186Z,101306.89
2018-03-01T14:00:29.744Z,101313.76
2018-03-01T14:02:58.309Z,101314.59
2018-03-01T14:05:26.644Z,101305.42
2018-03-01T14:07:54.971Z,101305.45
2018-03-01T14:10:23.379Z,101301.72
2018-03-01T14:12:51.687Z,101304.81
2018-03-01T14:15:20.196Z,101293.32
2018-03-01T14:17:48.943Z,101282.55
2018-03-01T14:20:17.754Z,101284.20
2018-03-01T14:22:46.215Z,101289.56
2018-03-01T14:25:14.624Z,101283.85
2018-03-01T14:27:43.018Z,101280.77
2018-03-01T14:30:11.907Z,101269.08
2018-03-01T14:32:40.319Z,101265.25
2018-03-01T14:35:08.739Z,101267.05
2018-03-01T14:37:37.026Z,101265.45
2018-03-01T14:40:05.530Z,101256.73
2018-03-01T14:42:33.819Z,101254.72
2018-03-01T14:45:02.100Z,101252.80
2018-03-01T14:47:30.512Z,101254.91
2018-03-01T14:49:58.808Z,101251.19
2018-03-01T14:52:27.173Z,101242.08
2018-03-01T14:54:56.414Z,101237.92
2018-03-01T14:57:25.167Z,101232.92
2018-03-01T14:59:53.479Z,101228.69
2018-03-01T15:02:22.215Z,101224.02
2018-03-01T15:04:50.535Z,101225.23
2018-03-01T15:07:19.215Z,101222.09
2018-03-01T15:09:48.234Z,101229.80
2018-03-01T15:12:16.816Z,101213.48
2018-03-01T15:14:45.111Z,101215.84
2018-03-01T15:17:13.418Z,101215.41
2018-03-01T15:19:41.775Z,101215.31
2018-03-01T15:22:10.167Z,101206.16
2018-03-01T15:24:38.483Z,101203.47
2018-03-01T15:27:06.843Z,101203.97
2018-03-01T15:29:35.148Z,101198.09
2018-03-01T15:32:03.683Z,101196.02
2018-03-01T15:34:32.664Z,101190.64
2018-03-01T15:37:01.028Z,101191.38
2018-03-01T15:39:29.564Z,101180.42
2018-03-01T15:41:58.004Z,101181.67
2018-03-01T15:44:26.339Z,101183.00
2018-03-01T15:46:54.760Z,101175.10
2018-03-01T15:49:23.069Z,101171.38
2018-03-01T15:51:51.383Z,101171.28
2018-03-01T15:54:19.726Z,101175.84
2018-03-01T15:56:48.119Z,101171.16
2018-03-01T15:59:16.547Z,101178.39
2018-03-01T16:01:44.852Z,101175.64
2018-03-01T16:04:13.642Z,101178.39
2018-03-01T16:06:42.621Z,101174.47
2018-03-01T16:09:11.086Z,101179.97
2018-03-01T16:11:39.405Z,101179.17
2018-03-01T16:14:07.711Z,101174.21
2018-03-01T16:16:36.053Z,101179.08
2018-03-01T16:19:04.878Z,101177.85
2018-03-01T16:21:34.126Z,101174.46
2018-03-01T16:24:02.739Z,101172.83
2018-03-01T16:26:31.112Z,101168.78
2018-03-01T16:28:59.415Z,101166.11
2018-03-01T16:31:27.762Z,101164.05
2018-03-01T16:33:56.854Z,101165.28
2018-03-01T16:36:25.206Z,101165.64
2018-03-01T16:38:53.517Z,101175.52
2018-03-01T16:41:21.925Z,101170.34
2018-03-01T16:43:50.580Z,101167.16
2018-03-01T16:46:19.140Z,101168.77
2018-03-01T16:48:47.743Z,101164.76
2018-03-01T16:51:16.120Z,101168.27
2018-03-01T16:53:44.521Z,101164.98
2018-03-01T16:56:12.843Z,101165.05
2018-03-01T16:58:41.191Z,101170.88
2018-03-01T17:01:09.610Z,101173.03
2018-03-01T17:03:37.959Z,101165.70
2018-03-01T17:06:06.663Z,101169.33
2018-03-01T17:08:35.044Z,101169.52
2018-03-01T17:11:03.644Z,101177.03
2018-03-01T17:13:32.025Z,101172.25
2018-03-01T17:16:00.369Z,101179.73
2018-03-01T17:18:28.694Z,101167.75
2018-03-01T17:20:57.183Z,101169.98
2018-03-01T17:23:25.506Z,101171.89
2018-03-01T17:25:53.836Z,101180.02
2018-03-01T17:28:22.141Z,101173.20
2018-03-01T17:30:50.947Z,101175.16
2018-03-01T17:33:19.332Z,101175.09
2018-03-01T17:35:47.871Z,101167.56
2018-03-01T17:38:16.514Z,101181.19
2018-03-01T17:40:44.863Z,101188.26
2018-03-01T17:43:13.152Z,101189.75
2018-03-01T17:45:41.495Z,101181.70
2018-03-01T17:48:09.821Z,101192.66
2018-03-01T17:50:38.169Z,101188.20
2018-03-01T17:53:07.403Z,101185.72
2018-03-01T17:55:35.740Z,101183.73
2018-03-01T17:58:04.106Z,101182.39
2018-03-01T18:00:32.479Z,101177.58
2018-03-01T18:03:00.787Z,101176.23
2018-03-01T18:05:29.772Z,101184.51
2018-03-01T18:07:59.091Z,101178.75
2018-03-01T18:10:28.215Z,101176.75
2018-03-01T18:12:58.342Z,101169.11
2018-03-01T18:15:27.404Z,101166.27
2018-03-01T18:17:55.789Z,101170.52
2018-03-01T18:20:24.185Z,101164.00
2018-03-01T18:22:52.923Z,101163.03
2018-03-01T18:25:21.387Z,101164.03
2018-03-01T18:27:49.895Z,101160.44
2018-03-01T18:30:18.395Z,101157.61
2018-03-01T18:32:46.708Z,101155.11
2018-03-01T18:35:15.028Z,101155.70
2018-03-01T18:37:43.484Z,101161.20
2018-03-01T18:40:12.051Z,101162.45
2018-03-01T18:42:40.423Z,101164.03
2018-03-01T18:45:08.729Z,101171.19
2018-03-01T18:47:37.053Z,101166.28
2018-03-01T18:50:05.413Z,101155.86
2018-03-01T18:52:34.559Z,101163.11
2018-03-01T18:55:02.996Z,101158.03
2018-03-01T18:57:31.906Z,101162.27
2018-03-01T19:00:00.346Z,101167.60
2018-03-01T19:02:28.850Z,101168.12
2018-03-01T19:04:57.495Z,101158.04
2018-03-01T19:07:25.900Z,101155.53
2018-03-01T19:09:54.233Z,101156.45
2018-03-01T19:12:22.600Z,101149.89
2018-03-01T19:14:50.880Z,101148.12
2018-03-01T19:17:19.184Z,101147.95
2018-03-01T19:19:47.675Z,101151.63
2018-03-01T19:22:16.205Z,101144.70
2018-03-01T19:24:44.592Z,101143.38
2018-03-01T19:27:12.939Z,101146.03
2018-03-01T19:29:42.141Z,101140.80
2018-03-01T19:32:10.644Z,101136.45
2018-03-01T19:34:40.103Z,101131.70
2018-03-01T19:37:08.804Z,101128.63
2018-03-01T19:39:37.868Z,101119.65
2018-03-01T19:42:06.445Z,101122.23
2018-03-01T19:44:34.759Z,101116.00
2018-03-01T19:47:03.063Z,101113.23
2018-03-01T19:49:31.440Z,101123.05
2018-03-01T19:51:59.763Z,101115.55
2018-03-01T19:54:28.167Z,101112.70
2018-03-01T19:56:57.447Z,101112.78
2018-03-01T19:59:25.986Z,101121.03
2018-03-01T20:01:55.794Z,101116.36
2018-03-01T20:04:24.376Z,101114.38
2018-03-01T20:06:52.772Z,101106.89
2018-03-01T20:09:21.105Z,101107.46
2018-03-01T20:11:49.579Z,101110.54
2018-03-01T20:14:18.022Z,101104.27
2018-03-01T20:16:46.350Z,101103.36
2018-03-01T20:19:14.663Z,101100.77
2018-03-01T20:21:43.331Z,101093.70
2018-03-01T20:24:12.115Z,101089.41
2018-03-01T20:26:40.776Z,101096.13
2018-03-01T20:29:09.321Z,101090.69
2018-03-01T20:31:38.174Z,101086.59
2018-03-01T20:34:07.094Z,101090.84
2018-03-01T20:36:35.511Z,101085.52
2018-03-01T20:39:03.877Z,101077.80
2018-03-01T20:41:32.565Z,101078.14
2018-03-01T20:44:01.070Z,101080.28
2018-03-01T20:46:29.570Z,101077.87
2018-03-01T20:48:58.307Z,101074.88
2018-03-01T20:51:27.114Z,101070.31
2018-03-01T20:53:55.964Z,101074.88
2018-03-01T20:56:24.370Z,101074.44
2018-03-01T20:58:52.740Z,101071.55
2018-03-01T21:01:21.126Z,101072.36
2018-03-01T21:03:49.742Z,101061.86
2018-03-01T21:06:18.167Z,101066.48
2018-03-01T21:08:46.632Z,101069.91
2018-03-01T21:11:15.079Z,101060.09
2018-03-01T21:13:43.485Z,101063.45
2018-03-01T21:16:11.835Z,101051.36
2018-03-01T21:18:40.155Z,101049.39
2018-03-01T21:21:08.604Z,101051.34
2018-03-01T21:23:37.022Z,101049.12
2018-03-01T21:26:05.471Z,101053.59
2018-03-01T21:28:33.857Z,101048.27
2018-03-01T21:31:03.223Z,101044.63
2018-03-01T21:33:31.622Z,101038.69
2018-03-01T21:36:00.295Z,101036.96
2018-03-01T21:38:28.599Z,101038.62
2018-03-01T21:40:56.955Z,101034.98
2018-03-01T21:43:25.756Z,101042.04
2018-03-01T21:45:54.150Z,101029.33
2018-03-01T21:48:22.485Z,101028.97
2018-03-01T21:50:50.968Z,101030.80
2018-03-01T21:53:19.446Z,101027.52
2018-03-01T21:55:47.824Z,101027.36
2018-03-01T21:58:16.171Z,101020.02
2018-03-01T22:00:44.502Z,101021.27
2018-03-01T22:03:12.952Z,101014.28
2018-03-01T22:05:41.403Z,101012.05
2018-03-01T22:08:09.752Z,101009.19
2018-03-01T22:10:38.200Z,101010.42
2018-03-01T22:13:06.852Z,101009.11
2018-03-01T22:15:35.187Z,101003.58
2018-03-01T22:18:03.773Z,101000.24
2018-03-01T22:20:32.119Z,100992.62
2018-03-01T22:23:00.470Z,100993.81
2018-03-01T22:25:29.082Z,100986.67
2018-03-01T22:27:57.390Z,100988.95
2018-03-01T22:30:25.754Z,100988.87
2018-03-01T22:32:54.108Z,100989.28
2018-03-01T22:35:22.426Z,100978.75
2018-03-01T22:37:50.740Z,100975.12
2018-03-01T22:40:19.130Z,100974.41
2018-03-01T22:42:47.420Z,100972.83
2018-03-01T22:45:15.779Z,100978.32
2018-03-01T22:47:44.102Z,100968.53
2018-03-01T22:50:12.451Z,100976.81
2018-03-01T22:52:41.170Z,100972.61
2018-03-01T22:55:09.632Z,100969.73
2018-03-01T22:57:37.967Z,100961.91
2018-03-01T23:00:06.314Z,100963.81
2018-03-01T23:02:34.965Z,100961.70
2018-03-01T23:05:03.266Z,100967.20
2018-03-01T23:07:31.608Z,100962.09
2018-03-01T23:10:00.068Z,100963.19
2018-03-01T23:12:28.498Z,100938.66
2018-03-01T23:14:56.904Z,100966.92
2018-03-01T23:17:25.335Z,100951.84
2018-03-01T23:19:53.648Z,100944.55
2018-03-01T23:22:22.092Z,100939.56
2018-03-01T23:24:50.384Z,100935.33
2018-03-01T23:27:18.853Z,100937.17
2018-03-01T23:29:47.147Z,100940.75
2018-03-01T23:32:15.603Z,100938.28
2018-03-01T23:34:43.926Z,100921.69
2018-03-01T23:37:12.247Z,100917.52
2018-03-01T23:39:40.588Z,100924.22
2018-03-01T23:42:09.090Z,100915.64
2018-03-01T23:44:37.429Z,100912.22
2018-03-01T23:47:05.760Z,100913.66
2018-03-01T23:49:34.319Z,100912.13
2018-03-01T23:52:02.636Z,100901.38
2018-03-01T23:54:31.084Z,100899.28
2018-03-01T23:56:59.441Z,100897.52
2018-03-01T23:59:27.755Z,100895.59
